Time;durP1;ratioP1;P1;durP2;ratioP2;P2;SDS_P1;SDS_P2;PMS_P1;PMS_P2;Temp;Humidity;BMP_temperature;BMP_pressure;BME280_temperature;BME280_humidity;BME280_pressure;Samples;Min_cycle;Max_cycle;Signal;HPM_P1;HPM_P2
2022/01/12 00:02:18;;;;;;;52.45;29.33;;;;;;;4.26;100.00;103591.16;10100883;29;20041;-75
2022/01/12 00:07:18;;;;;;;42.38;30.42;;;;;;;4.31;100.00;103590.91;10098808;29;20060;-74
2022/01/12 00:12:18;;;;;;;37.90;26.83;;;;;;;4.31;100.00;103578.34;10114636;29;20036;-74
2022/01/12 00:17:19;;;;;;;41.97;28.75;;;;;;;4.31;100.00;103567.63;10114483;29;20096;-74
2022/01/12 00:22:19;;;;;;;46.35;27.92;;;;;;;4.32;100.00;103560.44;10099174;29;20036;-75
2022/01/12 00:38:00;;;;;;;43.40;24.38;;;;;;;4.35;100.00;103569.16;10098922;29;20059;-77
2022/01/12 00:43:01;;;;;;;42.42;25.55;;;;;;;4.36;100.00;103596.84;10097562;29;20119;-76
2022/01/12 00:48:01;;;;;;;39.70;23.73;;;;;;;4.35;100.00;103573.66;10097231;29;20045;-76
2022/01/12 00:53:03;;;;;;;40.50;24.75;;;;;;;4.37;100.00;103580.66;10113632;29;20032;-76
2022/01/12 00:58:04;;;;;;;37.75;26.45;;;;;;;4.41;100.00;103590.25;10098762;29;20025;-76
2022/01/12 01:03:04;;;;;;;34.17;25.25;;;;;;;4.39;100.00;103576.06;10096973;29;20064;-76
2022/01/12 01:08:06;;;;;;;43.70;27.02;;;;;;;4.39;100.00;103575.19;10099488;29;20053;-76
2022/01/12 01:13:06;;;;;;;35.13;25.52;;;;;;;4.38;100.00;103558.25;10114358;29;20041;-77
2022/01/12 01:28:45;;;;;;;36.97;26.52;;;;;;;4.37;100.00;103567.25;10096320;29;20037;-77
2022/01/12 01:33:46;;;;;;;35.80;23.23;;;;;;;4.38;100.00;103570.78;10097824;29;20033;-76
2022/01/12 01:38:46;;;;;;;32.53;23.60;;;;;;;4.42;100.00;103580.38;10097197;29;20100;-77
2022/01/12 01:54:24;;;;;;;39.78;27.50;;;;;;;4.40;100.00;103626.09;10097863;29;20041;-77
2022/01/12 01:59:24;;;;;;;35.45;26.05;;;;;;;4.48;100.00;103659.66;10101996;29;20033;-77
2022/01/12 02:04:24;;;;;;;42.22;28.55;;;;;;;4.53;100.00;103684.38;10114323;29;20073;-76
2022/01/12 02:09:25;;;;;;;47.67;28.60;;;;;;;4.56;100.00;103684.19;10100178;29;20073;-77
2022/01/12 02:14:26;;;;;;;46.60;27.75;;;;;;;4.58;100.00;103683.16;10097980;29;20120;-77
2022/01/12 02:35:34;;;;;;;50.45;31.02;;;;;;;4.72;100.00;103685.03;10095570;29;20405;-77
2022/01/12 02:40:48;;;;;;;49.92;29.65;;;;;;;4.76;100.00;103697.34;10094752;29;20037;-77
2022/01/12 02:56:12;;;;;;;62.22;35.90;;;;;;;4.89;100.00;103694.78;10104523;29;20049;-77
2022/01/12 03:06:35;;;;;;;73.72;34.72;;;;;;;4.98;100.00;103690.66;10104038;29;20100;-77
2022/01/12 03:11:36;;;;;;;61.65;34.75;;;;;;;5.01;100.00;103674.38;10101376;29;20359;-77
2022/01/12 03:16:37;;;;;;;69.38;35.35;;;;;;;5.03;100.00;103667.09;10101951;29;20028;-77
2022/01/12 03:21:37;;;;;;;65.53;36.55;;;;;;;5.06;100.00;103688.41;10118089;29;20044;-78
2022/01/12 03:26:37;;;;;;;59.28;34.28;;;;;;;5.05;100.00;103710.84;10100724;29;20044;-77
2022/01/12 03:31:38;;;;;;;66.43;35.63;;;;;;;5.09;100.00;103718.63;10102100;29;20033;-77
2022/01/12 03:41:40;;;;;;;66.28;39.13;;;;;;;5.07;100.00;103722.34;10102977;29;20041;-77
2022/01/12 03:46:51;;;;;;;61.20;35.65;;;;;;;5.00;100.00;103719.16;10084879;29;20044;-77
2022/01/12 03:51:52;;;;;;;78.15;37.25;;;;;;;4.85;100.00;103725.44;10084048;29;20041;-77
2022/01/12 03:56:52;;;;;;;63.55;37.03;;;;;;;4.81;100.00;103724.75;10101158;29;20041;-77
2022/01/12 04:01:52;;;;;;;59.67;34.35;;;;;;;4.84;100.00;103732.63;10100311;29;20358;-77
2022/01/12 04:12:12;;;;;;;73.70;37.55;;;;;;;4.75;100.00;103719.75;10101382;29;20045;-78
2022/01/12 04:17:12;;;;;;;73.05;38.88;;;;;;;4.71;100.00;103711.97;10104307;29;20037;-78
2022/01/12 04:27:32;;;;;;;69.85;35.53;;;;;;;4.45;100.00;103732.28;10100454;29;20076;-78
2022/01/12 04:32:37;;;;;;;79.30;38.75;;;;;;;4.31;100.00;103736.63;10099732;29;20061;-77
2022/01/12 04:37:37;;;;;;;67.13;34.97;;;;;;;4.26;100.00;103741.38;10098528;29;20406;-77
2022/01/12 04:42:38;;;;;;;62.17;33.22;;;;;;;4.33;100.00;103734.69;10114970;29;20053;-79
2022/01/12 04:52:54;;;;;;;67.05;34.70;;;;;;;3.94;100.00;103732.44;10100596;29;20397;-77
2022/01/12 04:57:54;;;;;;;79.10;34.60;;;;;;;3.77;100.00;103732.50;10097587;29;20040;-77
2022/01/12 05:08:36;;;;;;;69.80;35.55;;;;;;;3.46;100.00;103735.00;10111205;29;20053;-77
2022/01/12 05:13:37;;;;;;;77.90;35.17;;;;;;;3.44;100.00;103755.63;10095544;29;20040;-77
2022/01/12 05:18:37;;;;;;;74.60;35.75;;;;;;;3.38;100.00;103749.72;10097634;29;20176;-77
2022/01/12 05:23:38;;;;;;;173.63;41.70;;;;;;;3.33;100.00;103758.03;10097658;29;20120;-77
2022/01/12 05:28:39;;;;;;;180.77;36.75;;;;;;;3.31;100.00;103756.38;10098225;29;20075;-78
2022/01/12 05:33:45;;;;;;;170.10;38.90;;;;;;;3.21;100.00;103751.47;10112064;29;20064;-77
2022/01/12 05:38:46;;;;;;;134.98;32.03;;;;;;;3.11;100.00;103776.16;10097999;29;20093;-77
2022/01/12 05:43:47;;;;;;;112.80;31.38;;;;;;;2.94;100.00;103774.31;10111163;29;20061;-75
2022/01/12 05:54:06;;;;;;;97.22;31.83;;;;;;;2.69;100.00;103788.06;10097146;29;20037;-76
2022/01/12 05:59:07;;;;;;;92.57;31.30;;;;;;;2.58;100.00;103799.25;10097191;29;20393;-75
2022/01/12 06:04:07;;;;;;;65.28;25.08;;;;;;;2.41;100.00;103801.88;10096902;29;20057;-76
2022/01/12 06:09:07;;;;;;;68.47;26.33;;;;;;;2.30;100.00;103805.06;10097291;29;20488;-77
2022/01/12 06:14:08;;;;;;;59.35;28.17;;;;;;;2.24;100.00;103816.06;10095805;29;20132;-77
2022/01/12 06:19:08;;;;;;;75.10;25.13;;;;;;;2.17;100.00;103831.50;10096009;29;20037;-76
2022/01/12 06:24:09;;;;;;;76.35;26.05;;;;;;;2.16;100.00;103832.44;10047608;29;20514;-77
2022/01/12 06:34:10;;;;;;;33.17;22.42;;;;;;;2.00;100.00;103840.28;10115302;29;20126;-77
2022/01/12 06:39:12;;;;;;;50.17;25.10;;;;;;;1.91;100.00;103840.69;10129707;29;20060;-77
2022/01/12 06:44:15;;;;;;;39.30;23.95;;;;;;;1.88;100.00;103847.97;10105557;29;20033;-77
2022/01/12 06:49:16;;;;;;;28.30;22.42;;;;;;;1.82;100.00;103847.34;10103898;29;20043;-77
2022/01/12 06:54:16;;;;;;;46.65;20.42;;;;;;;1.74;100.00;103860.16;10103584;29;20116;-77
2022/01/12 06:59:17;;;;;;;62.40;29.13;;;;;;;1.68;100.00;103868.44;10103138;29;20495;-77
2022/01/12 07:04:17;;;;;;;37.55;22.65;;;;;;;1.65;100.00;103881.91;10103187;29;20072;-76
2022/01/12 07:09:17;;;;;;;89.85;23.73;;;;;;;1.61;100.00;103899.88;10103369;29;20077;-77
2022/01/12 07:14:18;;;;;;;37.30;24.45;;;;;;;1.63;100.00;103889.16;10102443;29;20080;-77
2022/01/12 07:19:18;;;;;;;45.15;25.58;;;;;;;1.59;100.00;103888.38;10102953;29;20045;-77
2022/01/12 07:24:19;;;;;;;39.97;24.65;;;;;;;1.60;100.00;103890.13;10102233;29;20033;-77
2022/01/12 07:29:19;;;;;;;48.50;26.17;;;;;;;1.69;100.00;103888.88;10117167;29;20339;-76
2022/01/12 07:34:20;;;;;;;48.42;26.58;;;;;;;1.76;100.00;103894.84;10115629;29;20044;-77
2022/01/12 07:39:20;;;;;;;43.58;24.70;;;;;;;1.80;100.00;103907.13;10102643;29;20048;-77
2022/01/12 07:44:21;;;;;;;70.72;25.90;;;;;;;1.81;100.00;103907.03;10102933;29;20359;-77
2022/01/12 07:49:21;;;;;;;58.88;26.23;;;;;;;1.77;100.00;103905.44;10117362;29;20056;-77
2022/01/12 07:54:22;;;;;;;48.03;22.23;;;;;;;1.90;100.00;103913.78;10115139;29;20419;-77
2022/01/12 07:59:22;;;;;;;61.83;23.80;;;;;;;2.14;100.00;103921.66;10101237;29;20052;-76
2022/01/12 08:04:22;;;;;;;50.83;22.90;;;;;;;2.37;100.00;103942.91;10101527;29;20064;-77
2022/01/12 08:09:23;;;;;;;31.83;23.90;;;;;;;2.53;100.00;103951.97;10101034;29;20529;-77
2022/01/12 08:14:23;;;;;;;37.35;21.45;;;;;;;2.66;100.00;103954.09;10100216;29;20091;-77
2022/01/12 08:19:25;;;;;;;42.17;22.45;;;;;;;2.71;100.00;103962.75;10100808;29;20037;-77
2022/01/12 08:24:25;;;;;;;33.97;23.00;;;;;;;2.70;100.00;103961.88;10100837;29;20108;-77
2022/01/12 08:29:28;;;;;;;44.80;20.73;;;;;;;2.73;100.00;103966.22;10099292;29;20450;-76
2022/01/12 08:34:28;;;;;;;43.75;22.55;;;;;;;2.82;100.00;103978.31;10098317;29;20097;-77
2022/01/12 08:39:29;;;;;;;53.63;21.30;;;;;;;2.96;100.00;103984.75;10100144;29;20158;-77
2022/01/12 08:44:29;;;;;;;65.05;22.95;;;;;;;3.10;100.00;103981.44;10114659;29;20040;-77
2022/01/12 08:49:29;;;;;;;54.83;19.70;;;;;;;3.14;100.00;103990.19;10102178;29;20037;-77
2022/01/12 08:54:30;;;;;;;33.95;16.50;;;;;;;3.15;100.00;104005.31;10104726;29;20040;-77
2022/01/12 08:59:30;;;;;;;51.08;16.98;;;;;;;3.19;100.00;104006.91;10109748;29;20064;-77
2022/01/12 09:04:31;;;;;;;29.50;15.68;;;;;;;3.24;100.00;104016.47;10113826;29;20373;-77
2022/01/12 09:09:31;;;;;;;27.58;14.00;;;;;;;3.13;100.00;104024.16;10112566;29;20053;-77
2022/01/12 09:14:32;;;;;;;34.60;16.25;;;;;;;3.01;100.00;104027.38;10113079;29;20036;-77
2022/01/12 09:19:32;;;;;;;27.50;11.70;;;;;;;3.10;100.00;104053.75;10097729;29;20088;-77
2022/01/12 09:24:33;;;;;;;33.08;12.75;;;;;;;3.09;100.00;104061.81;10098177;29;20049;-77
2022/01/12 09:29:33;;;;;;;48.38;12.82;;;;;;;3.28;100.00;104060.03;10097582;29;20072;-77
2022/01/12 09:34:34;;;;;;;13.88;10.40;;;;;;;3.36;100.00;104073.94;10098415;29;20045;-77
2022/01/12 09:39:34;;;;;;;13.40;9.30;;;;;;;3.48;100.00;104075.19;10096679;29;20120;-77
2022/01/12 09:44:37;;;;;;;13.65;9.15;;;;;;;3.53;100.00;104080.31;10096797;29;20518;-77
2022/01/12 09:49:38;;;;;;;8.32;6.70;;;;;;;3.64;100.00;104080.69;10096662;29;20521;-77
2022/01/12 09:54:38;;;;;;;12.90;5.57;;;;;;;3.79;100.00;104084.41;10095820;29;20080;-77
2022/01/12 09:59:39;;;;;;;19.45;7.22;;;;;;;3.94;100.00;104083.66;10123537;29;20065;-78
2022/01/12 10:04:39;;;;;;;16.58;7.90;;;;;;;4.14;100.00;104080.84;10110600;29;20143;-77
2022/01/12 10:09:44;;;;;;;25.52;8.45;;;;;;;4.25;100.00;104083.00;10109262;29;20069;-78
2022/01/12 10:14:45;;;;;;;27.45;7.60;;;;;;;4.33;100.00;104091.50;10108450;29;20039;-77
2022/01/12 10:19:45;;;;;;;14.57;7.00;;;;;;;4.48;100.00;104110.47;10109537;29;20037;-77
2022/01/12 10:24:46;;;;;;;11.32;6.30;;;;;;;4.56;100.00;104097.50;10108584;29;20033;-78
2022/01/12 10:29:56;;;;;;;8.82;5.93;;;;;;;4.72;100.00;104082.31;10123674;29;20041;-78
2022/01/12 10:34:58;;;;;;;10.77;7.65;;;;;;;4.73;100.00;104092.13;10110427;29;20033;-78
2022/01/12 10:39:59;;;;;;;10.57;7.63;;;;;;;4.84;100.00;104087.06;10109199;29;20120;-78
2022/01/12 10:45:04;;;;;;;31.70;9.57;;;;;;;5.01;100.00;104087.97;10123296;29;20469;-78
2022/01/12 10:50:07;;;;;;;36.25;10.00;;;;;;;5.36;100.00;104078.88;10107384;29;20430;-78
2022/01/12 10:55:09;;;;;;;20.20;9.98;;;;;;;5.73;100.00;104079.47;10107093;29;20473;-78
2022/01/12 11:00:24;;;;;;;21.58;10.88;;;;;;;5.91;100.00;104092.81;10092021;29;20370;-78
2022/01/12 11:05:26;;;;;;;37.20;12.40;;;;;;;6.01;100.00;104085.97;10109523;29;20101;-78
2022/01/12 11:10:27;;;;;;;66.50;15.05;;;;;;;5.97;100.00;104088.00;10103751;29;20049;-78
2022/01/12 11:15:27;;;;;;;63.13;12.50;;;;;;;5.94;100.00;104084.63;10102956;29;20461;-78
2022/01/12 11:20:28;;;;;;;62.83;15.02;;;;;;;5.90;100.00;104072.25;10102108;29;20044;-78
2022/01/12 11:25:40;;;;;;;31.08;13.27;;;;;;;5.93;100.00;104062.19;10120472;29;20552;-78
2022/01/12 11:30:50;;;;;;;73.00;18.73;;;;;;;6.04;100.00;104064.28;10102242;29;20037;-78
2022/01/12 11:35:51;;;;;;;47.10;18.23;;;;;;;6.11;100.00;104054.03;10102212;29;20033;-78
2022/01/12 11:40:55;;;;;;;60.47;17.23;;;;;;;5.88;100.00;104047.28;10115394;29;20048;-78
2022/01/12 11:46:02;;;;;;;47.83;16.85;;;;;;;5.91;100.00;104044.41;10084406;29;20033;-78
2022/01/12 11:51:02;;;;;;;49.72;15.15;;;;;;;6.17;100.00;104053.66;10101198;29;20051;-78
2022/01/12 11:56:13;;;;;;;64.38;16.45;;;;;;;6.19;100.00;104055.31;10115973;29;20131;-77
2022/01/12 12:01:15;;;;;;;62.00;15.45;;;;;;;6.10;100.00;104045.09;10102040;29;20439;-78
2022/01/12 12:06:16;;;;;;;37.70;14.88;;;;;;;6.24;100.00;104039.75;10116377;29;20053;-77
2022/01/12 12:11:16;;;;;;;81.45;15.82;;;;;;;6.33;100.00;104034.78;10083396;29;20465;-78
2022/01/12 12:16:17;;;;;;;20.15;12.98;;;;;;;6.36;100.00;104032.75;10099797;29;20101;-78
2022/01/12 12:21:17;;;;;;;17.02;10.88;;;;;;;6.32;100.00;104028.53;10099307;29;20128;-78
2022/01/12 12:26:18;;;;;;;27.52;13.32;;;;;;;6.38;100.00;104021.88;10100928;29;20504;-78
2022/01/12 12:31:23;;;;;;;68.43;13.00;;;;;;;6.21;100.00;104020.22;10098423;29;20040;-78
2022/01/12 12:36:23;;;;;;;65.00;13.63;;;;;;;6.15;100.00;104016.06;10101413;29;20089;-78
2022/01/12 12:41:24;;;;;;;47.53;17.13;;;;;;;6.20;100.00;104015.81;10100854;29;20093;-78
2022/01/12 12:46:24;;;;;;;31.13;16.27;;;;;;;6.23;100.00;104016.50;10099368;29;20033;-78
2022/01/12 12:51:25;;;;;;;60.70;16.35;;;;;;;6.37;100.00;104023.72;10113083;29;20465;-78
2022/01/12 12:56:28;;;;;;;102.15;23.48;;;;;;;6.21;100.00;104023.78;10099370;29;20079;-78
2022/01/12 13:01:28;;;;;;;77.78;19.00;;;;;;;6.23;100.00;104029.94;10097391;29;20041;-78
2022/01/12 13:06:34;;;;;;;61.67;18.00;;;;;;;6.36;100.00;104048.91;10097470;29;20125;-78
2022/01/12 13:11:38;;;;;;;86.13;21.90;;;;;;;6.51;100.00;104056.06;10099476;29;20077;-78
2022/01/12 13:16:52;;;;;;;98.07;21.90;;;;;;;6.39;100.00;104047.88;10112380;29;20041;-78
2022/01/12 13:21:53;;;;;;;67.38;22.25;;;;;;;6.46;100.00;104055.47;10112110;29;20406;-78
2022/01/12 13:26:56;;;;;;;52.22;21.60;;;;;;;6.50;100.00;104054.31;10097447;29;20045;-78
2022/01/12 13:31:57;;;;;;;51.45;21.77;;;;;;;6.53;100.00;104061.34;10096723;29;20037;-78
2022/01/12 13:36:57;;;;;;;36.60;21.70;;;;;;;6.45;100.00;104064.50;10111885;29;20382;-78
2022/01/12 13:41:59;;;;;;;58.20;23.00;;;;;;;6.42;100.00;104066.53;10097275;29;20044;-78
2022/01/12 13:47:45;;;;;;;58.97;23.73;;;;;;;6.33;100.00;104059.00;10080951;29;20036;-78
2022/01/12 13:52:25;;;;;;;53.42;24.23;;;;;;;6.17;100.00;104056.34;10097105;29;20100;-78
2022/01/12 13:57:27;;;;;;;61.53;24.05;;;;;;;6.13;100.00;104061.06;10096721;29;20509;-78
2022/01/12 14:02:29;;;;;;;59.42;24.58;;;;;;;6.16;100.00;104058.19;10096699;29;20120;-78
2022/01/12 14:07:32;;;;;;;84.18;25.17;;;;;;;6.08;100.00;104057.75;10096775;29;20405;-77
2022/01/12 14:12:33;;;;;;;47.97;25.55;;;;;;;6.04;100.00;104053.53;10096513;29;20123;-78
2022/01/12 14:17:38;;;;;;;86.35;27.67;;;;;;;5.98;100.00;104041.28;10113839;29;20097;-78
2022/01/12 14:22:59;;;;;;;84.70;30.70;;;;;;;5.90;100.00;104040.81;10096580;29;20094;-78
2022/01/12 14:28:01;;;;;;;53.58;27.15;;;;;;;5.93;100.00;104050.59;10097637;29;20508;-78
2022/01/12 14:33:01;;;;;;;39.78;19.30;;;;;;;5.90;100.00;104058.78;10111144;29;20111;-78
2022/01/12 14:38:01;;;;;;;54.97;23.02;;;;;;;5.86;100.00;104054.56;10096739;29;20041;-77
2022/01/12 14:43:04;;;;;;;38.08;20.95;;;;;;;5.76;100.00;104056.91;10098218;29;20124;-77
2022/01/12 14:48:06;;;;;;;38.78;16.63;;;;;;;5.68;100.00;104052.00;10104237;29;20132;-78
2022/01/12 14:53:07;;;;;;;41.58;18.98;;;;;;;5.48;100.00;104066.53;10118933;29;20040;-78
2022/01/12 14:58:08;;;;;;;33.05;18.45;;;;;;;5.23;100.00;104064.38;10102796;29;20426;-78
2022/01/12 15:03:09;;;;;;;52.17;19.77;;;;;;;5.27;100.00;104057.88;10103664;29;20048;-78
2022/01/12 15:08:10;;;;;;;47.28;16.25;;;;;;;5.22;100.00;104061.75;10102205;29;20084;-78
2022/01/12 15:13:26;;;;;;;54.80;17.98;;;;;;;5.19;100.00;104049.34;10117320;29;20481;-78
2022/01/12 15:18:27;;;;;;;66.72;17.65;;;;;;;5.21;100.00;104068.97;10115291;29;20434;-78
2022/01/12 15:23:27;;;;;;;42.53;17.15;;;;;;;5.20;100.00;104072.59;10100719;29;20048;-78
2022/01/12 15:28:27;;;;;;;32.35;16.98;;;;;;;5.19;100.00;104073.53;10101531;29;20048;-78
2022/01/12 15:33:29;;;;;;;37.92;19.88;;;;;;;5.11;100.00;104083.84;10116329;29;20063;-78
2022/01/12 15:38:29;;;;;;;33.10;16.08;;;;;;;5.01;100.00;104075.44;10101755;29;20037;-77
2022/01/12 15:43:29;;;;;;;37.25;16.92;;;;;;;5.03;100.00;104081.56;10101593;29;20469;-78
2022/01/12 15:48:30;;;;;;;26.17;14.98;;;;;;;5.03;100.00;104091.44;10101477;29;20041;-78
2022/01/12 15:53:30;;;;;;;42.90;19.08;;;;;;;4.96;100.00;104093.59;10114814;29;20371;-77
2022/01/12 15:58:32;;;;;;;48.10;16.75;;;;;;;4.84;100.00;104084.38;10115617;29;20072;-78
2022/01/12 16:03:32;;;;;;;38.05;13.68;;;;;;;4.63;100.00;104093.59;10100812;29;20093;-78
2022/01/12 16:08:33;;;;;;;62.97;14.32;;;;;;;4.54;100.00;104096.75;10099659;29;20060;-78
2022/01/12 16:13:34;;;;;;;78.10;17.95;;;;;;;4.56;100.00;104079.63;10100622;29;20129;-78
2022/01/12 16:18:36;;;;;;;36.95;12.65;;;;;;;4.54;100.00;104065.41;10098955;29;20041;-77
2022/01/12 16:23:37;;;;;;;44.35;12.95;;;;;;;4.56;100.00;104081.41;10099842;29;20068;-78
2022/01/12 16:28:37;;;;;;;55.70;15.77;;;;;;;4.54;100.00;104086.88;10099919;29;20044;-78
2022/01/12 16:33:37;;;;;;;47.15;13.55;;;;;;;4.52;100.00;104088.75;10099042;29;20196;-78
2022/01/12 16:38:38;;;;;;;21.38;12.52;;;;;;;4.42;100.00;104085.69;10099907;29;20082;-78
2022/01/12 16:43:38;;;;;;;15.90;9.02;;;;;;;4.33;100.00;104083.47;10114093;29;20065;-77
2022/01/12 16:48:39;;;;;;;28.88;11.07;;;;;;;4.22;100.00;104077.78;10100904;29;20124;-78
2022/01/12 16:53:40;;;;;;;31.38;10.27;;;;;;;4.12;100.00;104082.75;10097803;29;20108;-78
2022/01/12 16:58:42;;;;;;;49.33;12.75;;;;;;;4.09;100.00;104084.72;10098610;29;20192;-78
2022/01/12 17:03:44;;;;;;;28.55;12.50;;;;;;;4.11;100.00;104085.50;10098926;29;20068;-78
2022/01/12 17:08:46;;;;;;;14.85;9.77;;;;;;;4.09;100.00;104082.91;10099221;29;20358;-78
2022/01/12 17:13:49;;;;;;;28.70;9.85;;;;;;;4.01;100.00;104070.81;10098746;29;20037;-78
2022/01/12 17:18:54;;;;;;;9.60;8.65;;;;;;;3.91;100.00;104071.25;10112856;29;20033;-78
2022/01/12 17:24:03;;;;;;;24.45;11.95;;;;;;;3.79;100.00;104074.53;10099239;29;20056;-78
2022/01/12 17:29:04;;;;;;;33.78;11.75;;;;;;;3.79;100.00;104082.59;10099370;29;20120;-78
2022/01/12 17:34:05;;;;;;;34.45;9.98;;;;;;;3.85;100.00;104093.00;10113415;29;20029;-78
2022/01/12 17:39:11;;;;;;;33.65;11.25;;;;;;;3.92;100.00;104086.44;10097924;29;20040;-77
2022/01/12 17:44:11;;;;;;;18.60;9.05;;;;;;;3.87;100.00;104093.81;10112042;29;20044;-78
2022/01/12 17:49:16;;;;;;;13.05;10.43;;;;;;;3.82;100.00;104095.84;10096292;29;20086;-79
2022/01/12 17:54:24;;;;;;;20.90;11.23;;;;;;;3.80;100.00;104102.22;10097341;29;20462;-78
2022/01/12 17:59:25;;;;;;;12.85;7.78;;;;;;;3.67;100.00;104112.66;10099398;29;20036;-78
2022/01/12 18:04:25;;;;;;;31.80;10.90;;;;;;;3.66;100.00;104121.66;10097360;29;20389;-77
2022/01/12 18:09:27;;;;;;;25.45;7.93;;;;;;;3.69;100.00;104111.66;10112722;29;20056;-77
2022/01/12 18:14:28;;;;;;;23.33;12.55;;;;;;;3.70;100.00;104118.78;10098182;29;20048;-78
2022/01/12 18:19:40;;;;;;;14.65;9.65;;;;;;;3.71;100.00;104122.31;10102559;29;20100;-78
2022/01/12 18:24:41;;;;;;;14.23;11.40;;;;;;;3.80;100.00;104118.31;10119223;29;20445;-78
2022/01/12 18:29:43;;;;;;;20.77;13.30;;;;;;;3.83;100.00;104113.69;10105336;29;20081;-77
2022/01/12 18:34:47;;;;;;;35.78;15.30;;;;;;;3.85;100.00;104127.88;10104273;29;20039;-77
2022/01/12 18:39:51;;;;;;;30.60;15.98;;;;;;;3.92;100.00;104133.78;10118662;29;20041;-78
2022/01/12 18:44:52;;;;;;;32.45;16.00;;;;;;;3.96;100.00;104144.31;10104588;29;20378;-78
2022/01/12 18:49:52;;;;;;;34.35;15.50;;;;;;;3.96;100.00;104146.13;10088901;29;20041;-77
2022/01/12 18:54:53;;;;;;;38.45;16.83;;;;;;;3.96;100.00;104160.41;10117553;29;20048;-78
2022/01/12 18:59:54;;;;;;;28.73;16.42;;;;;;;3.97;100.00;104156.78;10104096;29;20449;-78
2022/01/12 19:04:54;;;;;;;42.60;16.70;;;;;;;4.06;100.00;104154.59;10117620;29;20092;-77
2022/01/12 19:09:55;;;;;;;78.07;19.65;;;;;;;4.04;100.00;104167.19;10119287;29;20044;-78
2022/01/12 19:14:57;;;;;;;31.45;16.65;;;;;;;3.92;100.00;104171.34;10103197;29;20385;-78
2022/01/12 19:19:57;;;;;;;67.47;21.30;;;;;;;3.83;100.00;104169.97;10101816;29;20499;-78
2022/01/12 19:24:57;;;;;;;34.50;14.50;;;;;;;3.89;100.00;104175.06;10103934;29;20048;-78
2022/01/12 19:29:58;;;;;;;65.47;18.65;;;;;;;3.91;100.00;104175.84;10099931;29;20382;-78
2022/01/12 19:34:58;;;;;;;53.65;14.63;;;;;;;3.84;100.00;104174.41;10116700;29;20041;-76
2022/01/12 19:39:58;;;;;;;85.20;19.25;;;;;;;3.82;100.00;104173.59;10102899;29;20120;-77
2022/01/12 19:45:00;;;;;;;32.88;15.20;;;;;;;3.70;100.00;104177.72;10103057;29;20385;-77
2022/01/12 19:50:00;;;;;;;17.65;12.43;;;;;;;3.72;100.00;104178.50;10103173;29;20044;-75
2022/01/12 19:55:21;;;;;;;35.50;15.73;;;;;;;3.78;100.00;104176.50;10100947;29;20439;-79
2022/01/12 20:00:27;;;;;;;34.70;16.90;;;;;;;3.75;100.00;104177.50;10102641;29;20045;-77
2022/01/12 20:05:27;;;;;;;27.25;12.07;;;;;;;3.71;100.00;104171.41;10100669;29;20061;-77
2022/01/12 20:10:28;;;;;;;34.70;16.85;;;;;;;3.76;100.00;104181.06;10099707;29;20572;-77
2022/01/12 20:15:29;;;;;;;60.20;15.80;;;;;;;3.76;100.00;104173.00;10101141;29;20049;-76
2022/01/12 20:26:05;;;;;;;60.80;18.92;;;;;;;3.71;100.00;104173.25;10100482;29;20541;-75
2022/01/12 20:31:05;;;;;;;44.28;16.15;;;;;;;3.67;100.00;104182.34;10114517;29;20033;-76
2022/01/12 20:36:05;;;;;;;48.28;17.17;;;;;;;3.69;100.00;104184.00;10100453;29;20430;-74
2022/01/12 20:41:07;;;;;;;45.90;16.40;;;;;;;3.76;100.00;104181.06;10100261;29;20037;-77
2022/01/12 20:46:08;;;;;;;55.50;17.45;;;;;;;3.76;100.00;104184.59;10099615;29;20041;-77
2022/01/12 20:51:08;;;;;;;65.53;17.60;;;;;;;3.80;100.00;104188.00;10099473;29;20049;-74
2022/01/12 20:56:09;;;;;;;30.30;15.63;;;;;;;3.80;100.00;104188.00;10098119;29;20101;-75
2022/01/12 21:01:09;;;;;;;51.47;17.55;;;;;;;3.76;100.00;104198.00;10057568;29;20080;-76
2022/01/12 21:06:10;;;;;;;53.45;18.95;;;;;;;3.83;100.00;104199.47;10099524;29;20149;-75
2022/01/12 21:11:10;;;;;;;46.88;17.02;;;;;;;3.81;100.00;104197.81;10097696;29;20045;-77
2022/01/12 21:16:11;;;;;;;47.50;19.67;;;;;;;3.85;100.00;104186.84;10098806;29;20037;-76
2022/01/12 21:21:11;;;;;;;44.33;20.35;;;;;;;3.87;100.00;104179.59;10099070;29;20033;-76
2022/01/12 21:26:11;;;;;;;36.72;15.07;;;;;;;3.75;100.00;104169.47;10113395;29;20039;-76
2022/01/12 21:31:12;;;;;;;41.55;17.38;;;;;;;3.73;100.00;104174.91;10097886;29;20048;-76
2022/01/12 21:36:15;;;;;;;61.95;21.48;;;;;;;3.77;100.00;104172.94;10099303;29;20045;-76
2022/01/12 21:41:18;;;;;;;46.20;20.85;;;;;;;3.82;100.00;104168.22;10097534;29;20075;-74
2022/01/12 21:46:20;;;;;;;53.78;23.42;;;;;;;3.71;100.00;104174.09;10112058;29;20041;-74
2022/01/12 21:51:21;;;;;;;43.53;23.45;;;;;;;3.78;100.00;104163.09;10111952;29;20381;-76
2022/01/12 21:56:21;;;;;;;61.53;25.35;;;;;;;3.77;100.00;104162.22;10113705;29;20037;-76
2022/01/12 22:01:25;;;;;;;72.25;24.17;;;;;;;3.76;100.00;104167.66;10096313;29;20041;-76
2022/01/12 22:06:26;;;;;;;83.28;23.70;;;;;;;3.81;100.00;104177.22;10097255;29;20069;-76
2022/01/12 22:11:26;;;;;;;58.72;26.40;;;;;;;3.84;100.00;104171.72;10096306;29;20096;-76
2022/01/12 22:16:27;;;;;;;46.85;24.77;;;;;;;3.83;100.00;104167.31;10097696;29;20045;-76
2022/01/12 22:21:27;;;;;;;68.90;23.52;;;;;;;3.80;100.00;104175.50;10113258;29;20040;-76
2022/01/12 22:26:28;;;;;;;35.92;17.20;;;;;;;3.76;100.00;104171.19;10097245;29;20053;-76
2022/01/12 22:31:28;;;;;;;33.15;13.93;;;;;;;3.70;100.00;104169.69;10097099;29;20033;-76
2022/01/12 22:36:28;;;;;;;31.67;13.60;;;;;;;3.63;100.00;104168.22;10096693;29;20105;-76
2022/01/12 22:41:29;;;;;;;31.55;14.05;;;;;;;3.65;100.00;104169.03;10097358;29;20041;-76
2022/01/12 22:46:29;;;;;;;53.10;12.63;;;;;;;3.57;100.00;104167.63;10081459;29;20041;-76
2022/01/12 22:51:31;;;;;;;37.25;12.15;;;;;;;3.41;100.00;104165.66;10097898;29;20037;-76
2022/01/12 22:56:41;;;;;;;24.02;11.27;;;;;;;3.44;100.00;104181.59;10095669;29;20040;-76
2022/01/12 23:01:41;;;;;;;38.58;11.90;;;;;;;3.49;100.00;104182.25;10096818;29;20474;-76
2022/01/12 23:06:43;;;;;;;26.48;11.68;;;;;;;3.42;100.00;104183.50;10102660;29;20064;-76
2022/01/12 23:11:44;;;;;;;42.58;12.52;;;;;;;3.40;100.00;104182.69;10117446;29;20418;-76
2022/01/12 23:16:44;;;;;;;46.20;11.90;;;;;;;3.44;100.00;104194.13;10101825;29;20072;-76
2022/01/12 23:21:45;;;;;;;40.40;13.57;;;;;;;3.45;100.00;104202.13;10102887;29;20465;-76
2022/01/12 23:26:45;;;;;;;19.83;11.15;;;;;;;3.42;100.00;104196.91;10102905;29;20060;-76
2022/01/12 23:31:46;;;;;;;23.85;15.27;;;;;;;3.49;100.00;104205.50;10101798;29;20506;-76
2022/01/12 23:57:25;;;;;;;24.95;11.75;;;;;;;3.44;100.00;104160.16;10115426;29;20469;-76
